createdAt,value
2023-03-07T00:00:06.324Z,70.42
2023-03-07T00:01:06.506Z,70.42
2023-03-07T00:02:06.681Z,70.31
2023-03-07T00:03:06.924Z,70.21
2023-03-07T00:04:07.041Z,70.21
2023-03-07T00:05:07.199Z,69.90
2023-03-07T00:06:07.386Z,69.90
2023-03-07T00:07:07.555Z,69.69
2023-03-07T00:08:07.719Z,69.69
2023-03-07T00:09:07.909Z,69.59
2023-03-07T00:10:08.086Z,69.59
2023-03-07T00:11:08.256Z,69.79
2023-03-07T00:12:08.426Z,69.79
2023-03-07T00:13:08.606Z,69.90
2023-03-07T00:14:08.776Z,69.83
2023-03-07T00:15:08.946Z,70.14
2023-03-07T00:16:09.146Z,69.93
2023-03-07T00:17:09.314Z,69.93
2023-03-07T00:18:09.489Z,69.93
2023-03-07T00:19:09.653Z,69.93
2023-03-07T00:20:09.813Z,70.45
2023-03-07T00:21:09.984Z,70.87
2023-03-07T00:22:10.175Z,71.00
2023-03-07T00:23:10.356Z,71.42
2023-03-07T00:24:10.526Z,71.31
2023-03-07T00:25:10.695Z,71.62
2023-03-07T00:26:10.870Z,71.83
2023-03-07T00:27:11.061Z,72.17
2023-03-07T00:28:11.204Z,72.28
2023-03-07T00:29:11.393Z,72.07
2023-03-07T00:30:11.552Z,71.86
2023-03-07T00:31:11.790Z,71.62
2023-03-07T00:32:11.977Z,71.83
2023-03-07T00:33:12.079Z,72.28
2023-03-07T00:34:12.252Z,72.04
2023-03-07T00:35:12.452Z,72.07
2023-03-07T00:36:12.627Z,72.38
2023-03-07T00:37:12.831Z,72.49
2023-03-07T00:38:12.979Z,72.69
2023-03-07T00:39:13.148Z,72.69
2023-03-07T00:40:13.334Z,72.69
2023-03-07T00:41:13.500Z,72.59
2023-03-07T00:42:13.711Z,72.17
2023-03-07T00:43:13.857Z,72.17
2023-03-07T00:44:14.032Z,71.86
2023-03-07T00:45:14.216Z,71.42
2023-03-07T00:46:14.390Z,71.42
2023-03-07T00:47:14.592Z,72.04
2023-03-07T00:48:14.749Z,72.35
2023-03-07T00:49:14.929Z,72.38
2023-03-07T00:50:15.109Z,72.38
2023-03-07T00:51:15.302Z,72.38
2023-03-07T00:52:15.501Z,72.28
2023-03-07T00:53:15.644Z,72.38
2023-03-07T00:54:15.833Z,72.49
2023-03-07T00:55:16.036Z,72.25
2023-03-07T00:56:16.181Z,72.14
2023-03-07T00:57:16.373Z,72.14
2023-03-07T00:58:16.508Z,72.45
2023-03-07T00:59:16.690Z,72.56
2023-03-07T01:00:16.870Z,72.69
2023-03-07T01:01:17.138Z,73.00
2023-03-07T01:02:17.260Z,73.22
2023-03-07T01:03:17.409Z,73.11
2023-03-07T01:04:17.628Z,73.32
2023-03-07T01:05:17.767Z,73.53
2023-03-07T01:06:17.944Z,73.53
2023-03-07T01:07:18.139Z,73.66
2023-03-07T01:08:18.278Z,73.74
2023-03-07T01:09:18.468Z,73.53
2023-03-07T01:10:18.659Z,73.63
2023-03-07T01:11:18.836Z,73.53
2023-03-07T01:12:19.024Z,73.32
2023-03-07T01:13:19.207Z,73.43
2023-03-07T01:14:19.391Z,73.11
2023-03-07T01:15:19.569Z,73.11
2023-03-07T01:16:19.805Z,73.11
2023-03-07T01:17:19.930Z,73.22
2023-03-07T01:18:20.064Z,73.11
2023-03-07T01:19:20.255Z,73.32
2023-03-07T01:20:20.458Z,73.46
2023-03-07T01:21:20.632Z,73.56
2023-03-07T01:22:20.828Z,73.43
2023-03-07T01:23:20.997Z,73.35
2023-03-07T01:24:21.166Z,73.46
2023-03-07T01:25:21.347Z,73.46
2023-03-07T01:26:21.526Z,73.66
2023-03-07T01:27:21.725Z,73.46
2023-03-07T01:28:21.869Z,73.46
2023-03-07T01:29:22.074Z,73.46
2023-03-07T01:30:22.237Z,73.56
2023-03-07T01:31:22.545Z,73.66
2023-03-07T01:32:22.628Z,73.56
2023-03-07T01:33:22.776Z,73.53
2023-03-07T01:34:22.950Z,73.43
2023-03-07T01:35:23.140Z,73.32
2023-03-07T01:36:23.464Z,73.32
2023-03-07T01:37:23.635Z,73.43
2023-03-07T01:38:23.665Z,73.43
2023-03-07T01:39:23.842Z,73.22
2023-03-07T01:40:24.017Z,73.43
2023-03-07T01:41:24.198Z,73.43
2023-03-07T01:42:24.407Z,73.43
2023-03-07T01:43:24.555Z,73.43
2023-03-07T01:44:24.722Z,73.22
2023-03-07T01:45:24.916Z,73.22
2023-03-07T01:46:25.072Z,73.43
2023-03-07T01:47:25.282Z,73.32
2023-03-07T01:48:25.438Z,73.43
2023-03-07T01:49:25.618Z,73.63
2023-03-07T01:50:25.791Z,73.84
2023-03-07T01:51:25.975Z,73.94
2023-03-07T01:52:26.131Z,73.74
2023-03-07T01:53:26.304Z,73.74
2023-03-07T01:54:26.459Z,73.94
2023-03-07T01:55:26.656Z,73.70
2023-03-07T01:56:26.808Z,73.60
2023-03-07T01:57:26.989Z,73.49
2023-03-07T01:58:27.149Z,73.39
2023-03-07T01:59:27.308Z,73.28
2023-03-07T02:00:27.496Z,73.25
2023-03-07T02:01:27.717Z,73.15
2023-03-07T02:02:27.867Z,73.25
2023-03-07T02:03:28.027Z,73.05
2023-03-07T02:04:28.260Z,73.05
2023-03-07T02:05:28.355Z,73.05
2023-03-07T02:06:28.506Z,73.05
2023-03-07T02:07:28.685Z,72.91
2023-03-07T02:08:28.862Z,72.70
2023-03-07T02:09:29.007Z,72.70
2023-03-07T02:10:29.172Z,72.60
2023-03-07T02:11:29.355Z,72.60
2023-03-07T02:12:29.513Z,72.60
2023-03-07T02:13:29.683Z,72.36
2023-03-07T02:14:29.844Z,72.36
2023-03-07T02:15:30.015Z,72.25
2023-03-07T02:16:30.184Z,72.15
2023-03-07T02:17:30.343Z,72.15
2023-03-07T02:18:30.522Z,72.15
2023-03-07T02:19:30.682Z,72.05
2023-03-07T02:20:30.841Z,72.15
2023-03-07T02:21:31.030Z,71.94
2023-03-07T02:22:31.195Z,72.05
2023-03-07T02:23:31.403Z,71.80
2023-03-07T02:24:31.547Z,71.80
2023-03-07T02:25:31.746Z,71.80
2023-03-07T02:26:31.902Z,71.59
2023-03-07T02:27:32.080Z,71.70
2023-03-07T02:28:32.296Z,71.59
2023-03-07T02:29:32.456Z,71.59
2023-03-07T02:30:32.594Z,71.46
2023-03-07T02:31:32.771Z,71.25
2023-03-07T02:32:32.973Z,71.04
2023-03-07T02:33:33.103Z,71.04
2023-03-07T02:34:33.257Z,70.94
2023-03-07T02:35:33.497Z,70.81
2023-03-07T02:36:33.600Z,70.60
2023-03-07T02:37:33.794Z,70.81
2023-03-07T02:38:33.991Z,70.81
2023-03-07T02:39:34.153Z,70.81
2023-03-07T02:40:34.308Z,70.50
2023-03-07T02:41:34.502Z,70.39
2023-03-07T02:42:34.659Z,70.39
2023-03-07T02:43:34.861Z,70.39
2023-03-07T02:44:35.020Z,70.29
2023-03-07T02:45:35.214Z,70.18
2023-03-07T02:46:35.404Z,70.08
2023-03-07T02:47:35.563Z,70.29
2023-03-07T02:48:35.765Z,70.18
2023-03-07T02:49:35.920Z,70.18
2023-03-07T02:50:36.070Z,70.29
2023-03-07T02:51:36.276Z,69.98
2023-03-07T02:52:36.425Z,70.29
2023-03-07T02:53:36.610Z,69.98
2023-03-07T02:54:36.790Z,70.08
2023-03-07T02:55:36.958Z,70.29
2023-03-07T02:56:37.134Z,70.29
2023-03-07T02:57:37.279Z,70.18
2023-03-07T02:58:37.480Z,70.08
2023-03-07T02:59:37.640Z,69.98
2023-03-07T03:00:37.822Z,69.67
2023-03-07T03:01:38.050Z,69.98
2023-03-07T03:02:38.205Z,70.08
2023-03-07T03:03:38.418Z,69.98
2023-03-07T03:04:38.635Z,70.18
2023-03-07T03:05:38.742Z,70.18
2023-03-07T03:06:38.903Z,70.08
2023-03-07T03:07:39.101Z,69.98
2023-03-07T03:08:39.262Z,69.87
2023-03-07T03:09:39.422Z,69.98
2023-03-07T03:10:39.572Z,70.08
2023-03-07T03:11:39.772Z,70.18
2023-03-07T03:12:39.921Z,69.98
2023-03-07T03:13:40.140Z,69.98
2023-03-07T03:14:40.296Z,70.08
2023-03-07T03:15:40.492Z,70.08
2023-03-07T03:16:40.652Z,70.08
2023-03-07T03:17:40.802Z,69.87
2023-03-07T03:18:40.998Z,69.87
2023-03-07T03:19:41.163Z,69.84
2023-03-07T03:20:41.322Z,70.05
2023-03-07T03:21:41.484Z,70.05
2023-03-07T03:22:41.677Z,70.05
2023-03-07T03:23:41.852Z,69.95
2023-03-07T03:24:42.034Z,69.74
2023-03-07T03:25:42.192Z,69.84
2023-03-07T03:26:42.348Z,69.74
2023-03-07T03:27:42.549Z,69.64
2023-03-07T03:28:42.702Z,69.84
2023-03-07T03:29:42.870Z,69.64
2023-03-07T03:30:43.030Z,69.74
2023-03-07T03:31:43.346Z,69.64
2023-03-07T03:32:43.371Z,69.32
2023-03-07T03:33:43.541Z,69.64
2023-03-07T03:34:43.703Z,69.74
2023-03-07T03:35:43.897Z,69.64
2023-03-07T03:36:44.030Z,69.53
2023-03-07T03:37:44.248Z,69.53
2023-03-07T03:38:44.387Z,69.53
2023-03-07T03:39:44.550Z,69.32
2023-03-07T03:40:44.708Z,69.22
2023-03-07T03:41:44.896Z,69.32
2023-03-07T03:42:45.123Z,69.32
2023-03-07T03:43:45.257Z,69.32
2023-03-07T03:44:45.447Z,69.22
2023-03-07T03:45:45.638Z,69.12
2023-03-07T03:46:45.858Z,69.22
2023-03-07T03:47:46.029Z,69.22
2023-03-07T03:48:46.198Z,69.22
2023-03-07T03:49:46.355Z,69.12
2023-03-07T03:50:46.510Z,69.22
2023-03-07T03:51:46.694Z,69.43
2023-03-07T03:52:46.886Z,69.32
2023-03-07T03:53:47.056Z,69.32
2023-03-07T03:54:47.217Z,69.32
2023-03-07T03:55:47.394Z,69.32
2023-03-07T03:56:47.565Z,69.32
2023-03-07T03:57:47.718Z,69.43
2023-03-07T03:58:47.944Z,69.12
2023-03-07T03:59:48.086Z,69.12
2023-03-07T04:00:48.303Z,69.12
2023-03-07T04:01:48.535Z,69.22
2023-03-07T04:02:48.775Z,69.09
2023-03-07T04:03:48.838Z,69.29
2023-03-07T04:04:48.995Z,68.98
2023-03-07T04:05:49.162Z,69.09
2023-03-07T04:06:49.317Z,69.19
2023-03-07T04:07:50.921Z,68.98
2023-03-07T04:08:49.671Z,68.88
2023-03-07T04:09:49.824Z,68.98
2023-03-07T04:10:49.973Z,69.09
2023-03-07T04:11:50.131Z,69.09
2023-03-07T04:12:50.321Z,69.19
2023-03-07T04:13:50.504Z,68.98
2023-03-07T04:14:50.657Z,69.09
2023-03-07T04:15:50.816Z,69.06
2023-03-07T04:16:50.985Z,69.06
2023-03-07T04:17:51.161Z,69.16
2023-03-07T04:18:51.371Z,69.06
2023-03-07T04:19:51.529Z,68.95
2023-03-07T04:20:51.700Z,69.16
2023-03-07T04:21:51.863Z,69.26
2023-03-07T04:22:52.052Z,69.37
2023-03-07T04:23:52.258Z,69.16
2023-03-07T04:24:52.418Z,69.26
2023-03-07T04:25:52.628Z,69.47
2023-03-07T04:26:52.752Z,69.37
2023-03-07T04:27:52.961Z,69.37
2023-03-07T04:28:53.121Z,69.57
2023-03-07T04:29:53.303Z,69.67
2023-03-07T04:30:53.473Z,69.67
2023-03-07T04:31:53.633Z,69.74
2023-03-07T04:32:53.786Z,69.98
2023-03-07T04:33:54.004Z,70.09
2023-03-07T04:34:54.151Z,70.09
2023-03-07T04:35:54.402Z,70.19
2023-03-07T04:36:54.526Z,70.40
2023-03-07T04:37:54.684Z,70.61
2023-03-07T04:38:54.907Z,70.61
2023-03-07T04:39:55.037Z,70.61
2023-03-07T04:40:55.201Z,70.71
2023-03-07T04:41:55.378Z,70.81
2023-03-07T04:42:55.574Z,70.71
2023-03-07T04:43:55.750Z,70.92
2023-03-07T04:44:55.916Z,71.02
2023-03-07T04:45:56.082Z,71.02
2023-03-07T04:46:56.245Z,71.12
2023-03-07T04:47:56.398Z,71.12
2023-03-07T04:48:56.597Z,71.02
2023-03-07T04:49:56.749Z,71.12
2023-03-07T04:50:56.934Z,71.12
2023-03-07T04:51:57.098Z,71.12
2023-03-07T04:52:57.246Z,71.33
2023-03-07T04:53:57.427Z,71.12
2023-03-07T04:54:57.586Z,71.33
2023-03-07T04:55:57.736Z,71.33
2023-03-07T04:56:57.935Z,71.33
2023-03-07T04:57:58.097Z,71.33
2023-03-07T04:58:58.295Z,71.33
2023-03-07T04:59:58.425Z,71.33
2023-03-07T05:00:58.707Z,71.33
2023-03-07T05:01:58.764Z,71.33
2023-03-07T05:02:58.957Z,71.22
2023-03-07T05:03:59.199Z,71.33
2023-03-07T05:04:59.309Z,71.43
2023-03-07T05:05:59.493Z,71.43
2023-03-07T05:06:59.653Z,71.43
2023-03-07T05:07:59.819Z,71.64
2023-03-07T05:09:00.007Z,71.43
2023-03-07T05:10:00.173Z,71.33
2023-03-07T05:11:00.353Z,71.33
2023-03-07T05:12:00.528Z,71.43
2023-03-07T05:13:00.681Z,71.43
2023-03-07T05:14:00.853Z,71.43
2023-03-07T05:15:01.011Z,71.43
2023-03-07T05:16:01.303Z,71.43
2023-03-07T05:17:01.371Z,71.43
2023-03-07T05:18:01.569Z,71.43
2023-03-07T05:19:02.098Z,71.43
2023-03-07T05:20:01.898Z,71.43
2023-03-07T05:21:02.081Z,71.43
2023-03-07T05:22:02.238Z,71.43
2023-03-07T05:23:02.449Z,71.33
2023-03-07T05:24:02.599Z,71.12
2023-03-07T05:25:02.765Z,71.22
2023-03-07T05:26:02.922Z,71.02
2023-03-07T05:27:03.109Z,71.12
2023-03-07T05:28:03.309Z,71.12
2023-03-07T05:29:03.449Z,71.33
2023-03-07T05:30:03.630Z,71.09
2023-03-07T05:31:03.857Z,71.12
2023-03-07T05:32:03.965Z,70.98
2023-03-07T05:33:04.119Z,71.09
2023-03-07T05:34:04.296Z,71.09
2023-03-07T05:35:04.496Z,71.30
2023-03-07T05:36:04.679Z,71.30
2023-03-07T05:37:04.807Z,71.19
2023-03-07T05:38:05.010Z,71.09
2023-03-07T05:39:05.162Z,70.88
2023-03-07T05:40:05.340Z,70.88
2023-03-07T05:41:05.515Z,70.78
2023-03-07T05:42:05.700Z,70.67
2023-03-07T05:43:05.899Z,70.78
2023-03-07T05:44:06.038Z,70.78
2023-03-07T05:45:06.227Z,70.88
2023-03-07T05:46:06.449Z,70.88
2023-03-07T05:47:06.581Z,71.09
2023-03-07T05:48:06.766Z,70.98
2023-03-07T05:49:06.948Z,70.88
2023-03-07T05:50:07.136Z,70.88
2023-03-07T05:51:07.328Z,70.88
2023-03-07T05:52:07.494Z,70.78
2023-03-07T05:53:07.680Z,70.78
2023-03-07T05:54:07.909Z,70.67
2023-03-07T05:55:08.055Z,70.78
2023-03-07T05:56:08.201Z,70.54
2023-03-07T05:57:08.388Z,70.54
2023-03-07T05:58:08.549Z,70.33
2023-03-07T05:59:08.716Z,70.43
2023-03-07T06:00:08.912Z,70.43
2023-03-07T06:01:09.071Z,70.33
2023-03-07T06:02:09.237Z,70.23
2023-03-07T06:03:09.396Z,70.33
2023-03-07T06:04:09.602Z,70.23
2023-03-07T06:05:09.757Z,70.23
2023-03-07T06:06:09.917Z,70.23
2023-03-07T06:07:10.114Z,70.03
2023-03-07T06:08:10.266Z,70.23
2023-03-07T06:09:10.452Z,70.12
2023-03-07T06:10:10.642Z,70.12
2023-03-07T06:11:10.830Z,70.23
2023-03-07T06:12:10.971Z,70.12
2023-03-07T06:13:11.155Z,69.99
2023-03-07T06:14:11.316Z,69.99
2023-03-07T06:15:11.525Z,69.78
2023-03-07T06:16:11.760Z,69.78
2023-03-07T06:17:11.858Z,69.78
2023-03-07T06:18:12.042Z,69.68
2023-03-07T06:19:12.193Z,69.58
2023-03-07T06:20:12.365Z,69.68
2023-03-07T06:21:12.526Z,69.68
2023-03-07T06:22:12.694Z,69.48
2023-03-07T06:23:13.447Z,69.24
2023-03-07T06:24:13.051Z,69.24
2023-03-07T06:25:13.230Z,69.13
2023-03-07T06:26:13.393Z,69.13
2023-03-07T06:27:13.613Z,68.82
2023-03-07T06:28:13.764Z,68.93
2023-03-07T06:29:13.944Z,68.93
2023-03-07T06:30:14.095Z,68.72
2023-03-07T06:31:14.320Z,68.82
2023-03-07T06:32:14.457Z,68.82
2023-03-07T06:33:14.609Z,69.03
2023-03-07T06:34:14.771Z,69.03
2023-03-07T06:35:14.980Z,68.82
2023-03-07T06:36:15.118Z,68.82
2023-03-07T06:37:15.280Z,68.82
2023-03-07T06:38:15.455Z,68.82
2023-03-07T06:39:15.646Z,68.62
2023-03-07T06:40:15.845Z,68.62
2023-03-07T06:41:16.029Z,68.51
2023-03-07T06:42:16.183Z,68.82
2023-03-07T06:43:16.374Z,68.48
2023-03-07T06:44:16.542Z,68.27
2023-03-07T06:45:16.835Z,68.69
2023-03-07T06:46:16.882Z,68.69
2023-03-07T06:47:17.073Z,68.27
2023-03-07T06:48:17.262Z,68.48
2023-03-07T06:49:17.454Z,68.27
2023-03-07T06:50:21.286Z,67.97
2023-03-07T06:51:18.798Z,68.17
2023-03-07T06:52:17.958Z,68.27
2023-03-07T06:53:18.146Z,68.38
2023-03-07T06:54:18.294Z,67.97
2023-03-07T06:55:18.491Z,68.59
2023-03-07T06:56:18.630Z,68.14
2023-03-07T06:57:18.800Z,67.63
2023-03-07T06:58:18.963Z,68.35
2023-03-07T06:59:19.142Z,67.73
2023-03-07T07:00:19.332Z,68.04
2023-03-07T07:01:19.500Z,67.70
2023-03-07T07:02:19.741Z,67.18
2023-03-07T07:03:19.876Z,67.08
2023-03-07T07:04:19.991Z,66.77
2023-03-07T07:05:20.183Z,66.67
2023-03-07T07:06:20.321Z,66.77
2023-03-07T07:07:20.494Z,66.67
2023-03-07T07:08:20.661Z,66.74
2023-03-07T07:09:20.853Z,66.43
2023-03-07T07:10:21.045Z,66.22
2023-03-07T07:11:21.208Z,66.33
2023-03-07T07:12:21.372Z,66.22
2023-03-07T07:13:21.543Z,66.33
2023-03-07T07:14:21.720Z,66.22
2023-03-07T07:15:21.910Z,66.02
2023-03-07T07:16:22.097Z,66.09
2023-03-07T07:17:22.222Z,65.89
2023-03-07T07:18:22.385Z,65.92
2023-03-07T07:19:22.559Z,65.89
2023-03-07T07:20:22.739Z,65.99
2023-03-07T07:21:22.908Z,65.89
2023-03-07T07:22:23.068Z,65.89
2023-03-07T07:23:23.260Z,65.89
2023-03-07T07:24:23.439Z,65.34
2023-03-07T07:25:23.588Z,65.23
2023-03-07T07:26:23.758Z,65.34
2023-03-07T07:27:23.927Z,64.79
2023-03-07T07:28:24.099Z,65.00
2023-03-07T07:29:24.264Z,64.59
2023-03-07T07:30:24.443Z,64.48
2023-03-07T07:31:24.815Z,64.69
2023-03-07T07:32:24.921Z,64.90
2023-03-07T07:33:24.989Z,64.62
2023-03-07T07:34:25.148Z,64.62
2023-03-07T07:35:25.326Z,64.83
2023-03-07T07:36:25.477Z,64.93
2023-03-07T07:37:25.668Z,64.93
2023-03-07T07:38:25.857Z,64.72
2023-03-07T07:39:26.021Z,64.93
2023-03-07T07:40:26.208Z,64.93
2023-03-07T07:41:26.338Z,64.93
2023-03-07T07:42:26.519Z,64.93
2023-03-07T07:43:26.710Z,65.23
2023-03-07T07:44:26.869Z,64.93
2023-03-07T07:45:27.049Z,65.13
2023-03-07T07:46:27.220Z,65.34
2023-03-07T07:47:27.400Z,65.34
2023-03-07T07:48:27.575Z,65.23
2023-03-07T07:49:27.760Z,65.23
2023-03-07T07:50:27.991Z,65.23
2023-03-07T07:51:28.091Z,65.23
2023-03-07T07:52:28.271Z,64.93
2023-03-07T07:53:28.453Z,64.93
2023-03-07T07:54:28.637Z,64.93
2023-03-07T07:55:28.819Z,64.83
2023-03-07T07:56:28.992Z,65.03
2023-03-07T07:57:29.160Z,64.90
2023-03-07T07:58:29.339Z,64.90
2023-03-07T07:59:29.515Z,65.00
2023-03-07T08:00:29.792Z,65.11
2023-03-07T08:01:29.844Z,64.90
2023-03-07T08:02:30.076Z,65.00
2023-03-07T08:03:30.264Z,65.00
2023-03-07T08:04:30.390Z,64.69
2023-03-07T08:05:30.572Z,64.69
2023-03-07T08:06:30.787Z,64.56
2023-03-07T08:07:30.936Z,64.56
2023-03-07T08:08:31.105Z,64.46
2023-03-07T08:09:31.295Z,64.25
2023-03-07T08:10:31.493Z,64.36
2023-03-07T08:11:31.620Z,64.15
2023-03-07T08:12:31.845Z,63.94
2023-03-07T08:13:31.986Z,63.64
2023-03-07T08:14:32.154Z,64.15
2023-03-07T08:15:32.397Z,64.36
2023-03-07T08:16:32.521Z,64.25
2023-03-07T08:17:32.710Z,64.25
2023-03-07T08:18:32.892Z,64.15
2023-03-07T08:19:33.063Z,63.91
2023-03-07T08:20:33.248Z,63.81
2023-03-07T08:21:33.387Z,63.71
2023-03-07T08:22:33.549Z,63.71
2023-03-07T08:23:33.714Z,63.47
2023-03-07T08:24:40.561Z,63.17
2023-03-07T08:25:35.079Z,63.06
2023-03-07T08:26:34.231Z,62.62
2023-03-07T08:27:34.403Z,62.31
2023-03-07T08:28:34.574Z,62.52
2023-03-07T08:29:34.742Z,62.41
2023-03-07T08:30:34.930Z,62.21
2023-03-07T08:31:35.116Z,62.62
2023-03-07T08:32:35.299Z,62.73
2023-03-07T08:33:35.415Z,62.39
2023-03-07T08:34:35.585Z,62.08
2023-03-07T08:35:35.848Z,61.54
2023-03-07T08:36:35.925Z,61.54
2023-03-07T08:37:36.083Z,61.44
2023-03-07T08:38:36.278Z,60.89
2023-03-07T08:39:36.474Z,60.66
2023-03-07T08:40:36.661Z,60.56
2023-03-07T08:41:36.816Z,60.46
2023-03-07T08:42:37.010Z,60.35
2023-03-07T08:43:37.146Z,60.05
2023-03-07T08:44:37.371Z,59.94
2023-03-07T08:45:37.514Z,60.25
2023-03-07T08:46:37.740Z,60.05
2023-03-07T08:47:37.841Z,59.84
2023-03-07T08:48:38.001Z,59.94
2023-03-07T08:49:38.180Z,60.05
2023-03-07T08:50:38.390Z,60.35
2023-03-07T08:51:38.552Z,60.25
2023-03-07T08:52:38.722Z,60.25
2023-03-07T08:53:38.894Z,60.25
2023-03-07T08:54:39.069Z,60.46
2023-03-07T08:55:39.276Z,60.35
2023-03-07T08:56:39.434Z,60.05
2023-03-07T08:57:39.622Z,60.25
2023-03-07T08:58:39.791Z,60.25
2023-03-07T08:59:39.974Z,59.92
2023-03-07T09:00:40.186Z,59.92
2023-03-07T09:01:41.276Z,59.92
2023-03-07T09:02:40.522Z,60.22
2023-03-07T09:03:40.692Z,59.68
2023-03-07T09:04:40.906Z,59.58
2023-03-07T09:05:41.055Z,59.89
2023-03-07T09:06:41.218Z,59.38
2023-03-07T09:07:41.381Z,59.48
2023-03-07T09:08:41.580Z,59.58
2023-03-07T09:09:41.749Z,59.30
2023-03-07T09:10:41.971Z,59.20
2023-03-07T09:11:42.100Z,59.78
2023-03-07T09:12:42.271Z,59.89
2023-03-07T09:13:51.393Z,59.99
2023-03-07T09:14:43.613Z,59.99
2023-03-07T09:15:42.803Z,60.17
2023-03-07T09:16:43.010Z,59.45
2023-03-07T09:17:43.190Z,58.94
2023-03-07T09:18:43.338Z,60.68
2023-03-07T09:19:43.500Z,59.83
2023-03-07T09:20:43.676Z,58.98
2023-03-07T09:21:43.820Z,58.25
2023-03-07T09:22:44.021Z,57.98
2023-03-07T09:23:44.153Z,57.55
2023-03-07T09:24:44.340Z,55.69
2023-03-07T09:25:44.530Z,55.15
2023-03-07T09:26:44.698Z,54.74
2023-03-07T09:27:44.873Z,54.67
2023-03-07T09:28:45.072Z,55.69
2023-03-07T09:29:45.240Z,54.97
2023-03-07T09:30:45.436Z,55.58
2023-03-07T09:31:45.598Z,54.46
2023-03-07T09:32:45.825Z,55.38
2023-03-07T09:33:47.044Z,54.97
2023-03-07T09:34:46.160Z,54.77
2023-03-07T09:35:46.387Z,55.07
2023-03-07T09:36:46.505Z,56.20
2023-03-07T09:37:46.693Z,55.28
2023-03-07T09:38:46.862Z,55.38
2023-03-07T09:39:47.032Z,55.69
2023-03-07T09:40:47.214Z,54.67
2023-03-07T09:41:47.376Z,54.87
2023-03-07T09:42:47.539Z,54.57
2023-03-07T09:43:47.744Z,54.77
2023-03-07T09:44:47.916Z,55.07
2023-03-07T09:45:48.131Z,54.57
2023-03-07T09:46:48.255Z,54.67
2023-03-07T09:47:48.393Z,54.77
2023-03-07T09:48:48.564Z,54.59
2023-03-07T09:49:48.760Z,54.49
2023-03-07T09:50:49.060Z,55.10
2023-03-07T09:51:49.084Z,55.61
2023-03-07T09:52:49.256Z,56.23
2023-03-07T09:53:49.488Z,55.82
2023-03-07T09:54:49.593Z,56.23
2023-03-07T09:55:49.765Z,55.71
2023-03-07T09:56:49.946Z,56.02
2023-03-07T09:57:50.157Z,55.71
2023-03-07T09:58:50.304Z,55.41
2023-03-07T09:59:50.897Z,55.00
2023-03-07T10:00:50.670Z,55.51
2023-03-07T10:01:50.833Z,55.51
2023-03-07T10:02:51.023Z,55.41
2023-03-07T10:03:51.246Z,56.73
2023-03-07T10:04:51.394Z,56.43
2023-03-07T10:05:51.589Z,56.23
2023-03-07T10:06:51.748Z,56.23
2023-03-07T10:07:51.940Z,56.53
2023-03-07T10:08:52.095Z,56.12
2023-03-07T10:09:52.288Z,55.82
2023-03-07T10:10:52.497Z,56.12
2023-03-07T10:11:52.709Z,55.71
2023-03-07T10:12:52.829Z,55.91
2023-03-07T10:13:53.005Z,55.91
2023-03-07T10:14:53.175Z,56.45
2023-03-07T10:15:53.427Z,56.12
2023-03-07T10:16:53.563Z,55.82
2023-03-07T10:17:53.706Z,55.51
2023-03-07T10:18:53.905Z,56.84
2023-03-07T10:19:54.064Z,56.94
2023-03-07T10:20:54.304Z,56.53
2023-03-07T10:21:54.446Z,56.02
2023-03-07T10:22:54.619Z,56.20
2023-03-07T10:23:54.795Z,56.20
2023-03-07T10:24:54.963Z,55.99
2023-03-07T10:25:55.163Z,55.99
2023-03-07T10:26:55.334Z,55.99
2023-03-07T10:27:55.519Z,56.10
2023-03-07T10:28:55.704Z,55.79
2023-03-07T10:29:55.917Z,56.20
2023-03-07T10:30:56.109Z,55.91
2023-03-07T10:31:56.301Z,56.02
2023-03-07T10:32:56.421Z,56.94
2023-03-07T10:33:56.570Z,56.43
2023-03-07T10:34:56.743Z,57.34
2023-03-07T10:35:56.958Z,57.34
2023-03-07T10:37:08.125Z,57.24
2023-03-07T10:37:58.239Z,57.27
2023-03-07T10:38:57.454Z,57.17
2023-03-07T10:39:57.592Z,57.48
2023-03-07T10:40:57.777Z,57.37
2023-03-07T10:41:57.983Z,58.01
2023-03-07T10:42:58.119Z,58.01
2023-03-07T10:43:58.321Z,58.73
2023-03-07T10:44:58.504Z,58.32
2023-03-07T10:45:58.662Z,57.60
2023-03-07T10:46:58.862Z,57.91
2023-03-07T10:47:58.977Z,58.11
2023-03-07T10:48:59.177Z,57.63
2023-03-07T10:49:59.340Z,58.34
2023-03-07T10:50:59.556Z,58.04
2023-03-07T10:51:59.677Z,58.14
2023-03-07T10:52:59.849Z,58.65
2023-03-07T10:54:00.015Z,57.93
2023-03-07T10:55:00.225Z,57.93
2023-03-07T10:56:00.419Z,57.86
2023-03-07T10:57:00.601Z,58.17
2023-03-07T10:58:00.736Z,58.40
2023-03-07T10:59:00.936Z,58.70
2023-03-07T11:00:01.119Z,58.73
2023-03-07T11:01:01.345Z,59.14
2023-03-07T11:02:01.468Z,59.45
2023-03-07T11:03:01.624Z,59.45
2023-03-07T11:04:01.794Z,59.32
2023-03-07T11:05:02.073Z,59.63
2023-03-07T11:06:02.175Z,59.42
2023-03-07T11:07:02.352Z,59.83
2023-03-07T11:08:02.514Z,59.73
2023-03-07T11:09:04.075Z,58.91
2023-03-07T11:10:02.853Z,58.81
2023-03-07T11:11:03.061Z,58.02
2023-03-07T11:12:03.236Z,58.43
2023-03-07T11:13:03.414Z,58.22
2023-03-07T11:14:03.584Z,58.12
2023-03-07T11:15:03.815Z,58.02
2023-03-07T11:16:11.454Z,58.33
2023-03-07T11:17:05.142Z,57.99
2023-03-07T11:18:04.343Z,58.22
2023-03-07T11:19:04.471Z,58.40
2023-03-07T11:20:04.659Z,58.61
2023-03-07T11:21:04.880Z,57.89
2023-03-07T11:22:05.021Z,57.28
2023-03-07T11:23:05.193Z,57.79
2023-03-07T11:24:05.442Z,57.76
2023-03-07T11:25:05.593Z,57.76
2023-03-07T11:26:05.752Z,57.25
2023-03-07T11:27:05.916Z,57.76
2023-03-07T11:28:06.083Z,57.56
2023-03-07T11:29:06.247Z,57.15
2023-03-07T11:30:06.468Z,56.81
2023-03-07T11:31:06.673Z,56.81
2023-03-07T11:32:06.792Z,56.30
2023-03-07T11:33:06.974Z,56.30
2023-03-07T11:34:07.121Z,55.99
2023-03-07T11:35:07.293Z,56.20
2023-03-07T11:36:07.523Z,55.89
2023-03-07T11:37:07.632Z,56.30
2023-03-07T11:38:07.819Z,55.99
2023-03-07T11:39:08.015Z,55.99
2023-03-07T11:40:08.177Z,56.40
2023-03-07T11:41:08.359Z,55.99
2023-03-07T11:42:08.569Z,55.69
2023-03-07T11:43:08.759Z,55.38
2023-03-07T11:44:08.873Z,55.21
2023-03-07T11:45:09.055Z,54.69
2023-03-07T11:46:09.372Z,55.30
2023-03-07T11:47:09.429Z,55.21
2023-03-07T11:48:09.582Z,55.23
2023-03-07T11:49:09.752Z,55.94
2023-03-07T11:50:09.961Z,55.94
2023-03-07T11:51:10.114Z,54.92
2023-03-07T11:52:10.333Z,54.82
2023-03-07T11:53:10.494Z,55.54
2023-03-07T11:54:10.632Z,55.56
2023-03-07T11:55:10.818Z,55.77
2023-03-07T11:56:10.959Z,56.07
2023-03-07T11:57:11.107Z,55.56
2023-03-07T11:58:11.295Z,55.46
2023-03-07T11:59:11.471Z,55.46
2023-03-07T12:00:11.654Z,55.77
2023-03-07T12:01:12.190Z,55.66
2023-03-07T12:02:11.965Z,55.38
2023-03-07T12:03:12.200Z,55.49
2023-03-07T12:04:12.327Z,56.10
2023-03-07T12:05:12.496Z,55.69
2023-03-07T12:06:12.664Z,56.43
2023-03-07T12:07:12.842Z,55.92
2023-03-07T12:08:12.996Z,56.43
2023-03-07T12:09:13.156Z,56.13
2023-03-07T12:10:13.340Z,56.64
2023-03-07T12:11:13.539Z,56.35
2023-03-07T12:12:13.689Z,56.15
2023-03-07T12:13:13.881Z,56.67
2023-03-07T12:14:14.049Z,57.07
2023-03-07T12:15:14.206Z,57.00
2023-03-07T12:16:14.457Z,57.82
2023-03-07T12:17:14.527Z,58.12
2023-03-07T12:18:14.749Z,57.71
2023-03-07T12:19:14.906Z,58.15
2023-03-07T12:20:15.119Z,58.33
2023-03-07T12:21:15.286Z,58.36
2023-03-07T12:22:15.447Z,58.26
2023-03-07T12:23:15.630Z,58.44
2023-03-07T12:24:15.797Z,58.44
2023-03-07T12:25:15.956Z,58.84
2023-03-07T12:26:16.194Z,58.54
2023-03-07T12:27:16.307Z,58.44
2023-03-07T12:28:16.508Z,58.74
2023-03-07T12:29:16.694Z,58.64
2023-03-07T12:30:16.837Z,58.84
2023-03-07T12:31:17.040Z,58.95
2023-03-07T12:32:17.333Z,58.95
2023-03-07T12:33:17.505Z,58.84
2023-03-07T12:34:17.537Z,58.95
2023-03-07T12:35:17.688Z,58.84
2023-03-07T12:36:17.948Z,58.95
2023-03-07T12:37:18.093Z,58.84
2023-03-07T12:38:18.228Z,59.36
2023-03-07T12:39:18.431Z,59.87
2023-03-07T12:40:18.610Z,59.77
2023-03-07T12:41:18.771Z,59.56
2023-03-07T12:42:18.942Z,59.97
2023-03-07T12:43:19.106Z,59.87
2023-03-07T12:44:19.266Z,59.46
2023-03-07T12:45:19.471Z,59.77
2023-03-07T12:46:19.751Z,59.69
2023-03-07T12:47:19.757Z,59.59
2023-03-07T12:48:19.971Z,59.89
2023-03-07T12:49:20.120Z,59.80
2023-03-07T12:50:20.288Z,60.21
2023-03-07T12:51:20.457Z,60.72
2023-03-07T12:52:20.632Z,60.92
2023-03-07T12:53:20.784Z,60.92
2023-03-07T12:54:20.946Z,60.72